createdAt,value
2018-12-07T00:00:01.897Z,3.40
2018-12-07T00:02:28.898Z,3.40
2018-12-07T00:04:55.958Z,3.30
2018-12-07T00:07:22.937Z,3.40
2018-12-07T00:09:56.917Z,3.40
2018-12-07T00:12:23.898Z,3.40
2018-12-07T00:14:51.098Z,3.40
2018-12-07T00:17:18.138Z,3.40
2018-12-07T00:19:47.841Z,3.40
2018-12-07T00:22:13.790Z,3.40
2018-12-07T00:24:40.803Z,3.40
2018-12-07T00:27:07.863Z,3.40
2018-12-07T00:29:34.863Z,3.30
2018-12-07T00:32:01.904Z,3.30
2018-12-07T00:34:28.923Z,3.40
2018-12-07T00:36:56.003Z,3.40
2018-12-07T00:39:23.011Z,3.40
2018-12-07T00:41:50.023Z,3.40
2018-12-07T00:44:17.023Z,3.40
2018-12-07T00:46:44.043Z,3.40
2018-12-07T00:49:11.063Z,3.40
2018-12-07T00:51:38.123Z,3.40
2018-12-07T00:54:05.544Z,3.40
2018-12-07T00:56:33.243Z,3.30
2018-12-07T00:59:00.283Z,3.30
2018-12-07T01:01:27.343Z,3.30
2018-12-07T01:03:54.323Z,3.20
2018-12-07T01:06:21.403Z,3.20
2018-12-07T01:08:48.423Z,3.20
2018-12-07T01:11:15.493Z,3.20
2018-12-07T01:13:42.573Z,3.10
2018-12-07T01:16:09.674Z,3.10
2018-12-07T01:18:36.614Z,3.10
2018-12-07T01:21:04.055Z,3.10
2018-12-07T01:23:31.075Z,3.00
2018-12-07T01:25:58.154Z,3.00
2018-12-07T01:28:25.373Z,3.00
2018-12-07T01:30:52.354Z,3.00
2018-12-07T01:33:19.393Z,3.00
2018-12-07T01:35:46.594Z,3.00
2018-12-07T01:38:13.633Z,3.00
2018-12-07T01:40:47.614Z,3.00
2018-12-07T01:43:14.673Z,3.00
2018-12-07T01:45:41.695Z,3.00
2018-12-07T01:48:08.814Z,2.90
2018-12-07T01:50:35.839Z,2.90
2018-12-07T01:53:02.934Z,2.90
2018-12-07T01:55:29.973Z,3.00
2018-12-07T01:57:57.013Z,3.00
2018-12-07T02:00:24.035Z,3.00
2018-12-07T02:02:51.073Z,3.00
2018-12-07T02:05:18.113Z,3.10
2018-12-07T02:07:45.174Z,3.10
2018-12-07T02:10:12.215Z,3.20
2018-12-07T02:12:39.666Z,3.20
2018-12-07T02:15:06.734Z,3.20
2018-12-07T02:17:33.738Z,3.20
2018-12-07T02:20:00.853Z,3.20
2018-12-07T02:22:27.927Z,3.10
2018-12-07T02:25:02.153Z,3.00
2018-12-07T02:27:31.935Z,3.00
2018-12-07T02:30:06.053Z,3.00
2018-12-07T02:32:33.055Z,3.00
2018-12-07T02:34:59.989Z,3.00
2018-12-07T02:37:27.048Z,3.00
2018-12-07T02:39:54.035Z,2.90
2018-12-07T02:42:21.074Z,2.90
2018-12-07T02:44:55.256Z,2.90
2018-12-07T02:47:22.255Z,2.90
2018-12-07T02:49:49.294Z,2.90
2018-12-07T02:52:16.285Z,2.90
2018-12-07T02:54:43.255Z,2.90
2018-12-07T02:57:10.755Z,2.90
2018-12-07T02:59:37.894Z,2.90
2018-12-07T03:02:04.934Z,2.90
2018-12-07T03:04:31.974Z,2.90
2018-12-07T03:07:05.874Z,2.90
2018-12-07T03:09:32.935Z,2.90
2018-12-07T03:11:59.936Z,2.90
2018-12-07T03:14:26.935Z,2.90
2018-12-07T03:16:53.951Z,2.90
2018-12-07T03:19:20.962Z,2.90
2018-12-07T03:21:48.061Z,2.90
2018-12-07T03:24:15.077Z,3.00
2018-12-07T03:26:42.034Z,3.00
2018-12-07T03:29:09.034Z,3.00
2018-12-07T03:31:36.035Z,3.10
2018-12-07T03:34:03.040Z,3.10
2018-12-07T03:36:30.175Z,3.10
2018-12-07T03:38:57.276Z,3.20
2018-12-07T03:41:24.276Z,3.20
2018-12-07T03:43:51.814Z,3.30
2018-12-07T03:46:18.854Z,3.30
2018-12-07T03:48:45.914Z,3.30
2018-12-07T03:51:12.915Z,3.30
2018-12-07T03:53:39.935Z,3.40
2018-12-07T03:56:06.874Z,3.40
2018-12-07T03:58:33.896Z,3.40
2018-12-07T04:01:00.934Z,3.40
2018-12-07T04:03:27.994Z,3.40
2018-12-07T04:05:54.935Z,3.50
2018-12-07T04:08:22.017Z,3.50
2018-12-07T04:10:48.994Z,3.50
2018-12-07T04:13:15.955Z,3.50
2018-12-07T04:15:42.995Z,3.50
2018-12-07T04:18:10.018Z,3.50
2018-12-07T04:20:37.015Z,3.50
2018-12-07T04:23:04.055Z,3.60
2018-12-07T04:25:31.076Z,3.60
2018-12-07T04:27:58.034Z,3.60
2018-12-07T04:30:25.562Z,3.60
2018-12-07T04:32:52.576Z,3.60
2018-12-07T04:35:19.554Z,3.60
2018-12-07T04:37:46.516Z,3.60
2018-12-07T04:40:14.419Z,3.60
2018-12-07T04:42:41.416Z,3.60
2018-12-07T04:48:57.597Z,3.70
2018-12-07T04:51:24.575Z,3.70
2018-12-07T04:53:51.535Z,3.70
2018-12-07T04:56:18.536Z,3.70
2018-12-07T04:58:45.859Z,3.70
2018-12-07T05:01:12.895Z,3.70
2018-12-07T05:03:39.954Z,3.70
2018-12-07T05:06:13.838Z,3.80
2018-12-07T05:08:40.835Z,3.70
2018-12-07T05:11:07.776Z,3.70
2018-12-07T05:13:41.815Z,3.70
2018-12-07T05:16:08.775Z,3.70
2018-12-07T05:18:35.858Z,3.70
2018-12-07T05:21:02.959Z,3.70
2018-12-07T05:23:29.955Z,3.80
2018-12-07T05:25:56.955Z,3.80
2018-12-07T05:28:24.114Z,3.80
2018-12-07T05:30:51.081Z,3.80
2018-12-07T05:33:19.055Z,3.80
2018-12-07T05:35:46.035Z,3.80
2018-12-07T05:38:13.035Z,3.80
2018-12-07T05:40:39.987Z,3.90
2018-12-07T05:43:06.981Z,3.90
2018-12-07T05:45:33.976Z,3.90
2018-12-07T05:48:00.916Z,3.90
2018-12-07T05:50:28.442Z,3.90
2018-12-07T05:52:55.395Z,3.90
2018-12-07T05:55:22.415Z,3.90
2018-12-07T05:57:49.435Z,3.90
2018-12-07T06:00:16.517Z,3.90
2018-12-07T06:02:43.475Z,3.90
2018-12-07T06:05:10.695Z,4.00
2018-12-07T06:07:37.697Z,4.00
2018-12-07T06:10:04.874Z,4.00
2018-12-07T06:12:31.835Z,4.00
2018-12-07T06:14:59.054Z,4.00
2018-12-07T06:17:26.075Z,4.00
2018-12-07T06:19:53.095Z,4.00
2018-12-07T06:22:20.175Z,4.00
2018-12-07T06:24:47.254Z,4.00
2018-12-07T06:27:14.234Z,4.10
2018-12-07T06:29:41.294Z,4.10
2018-12-07T06:32:08.373Z,4.20
2018-12-07T06:34:35.534Z,4.20
2018-12-07T06:37:02.614Z,4.10
2018-12-07T06:39:29.633Z,4.20
2018-12-07T06:41:56.654Z,4.20
2018-12-07T06:44:23.573Z,4.20
2018-12-07T06:46:50.673Z,4.20
2018-12-07T06:49:17.654Z,4.20
2018-12-07T06:51:44.696Z,4.20
2018-12-07T06:54:11.673Z,4.20
2018-12-07T06:56:38.653Z,4.20
2018-12-07T06:59:05.698Z,4.20
2018-12-07T07:01:32.694Z,4.20
2018-12-07T07:03:59.754Z,4.30
2018-12-07T07:06:33.756Z,4.30
2018-12-07T07:09:00.754Z,4.30
2018-12-07T07:11:27.894Z,4.40
2018-12-07T07:13:54.934Z,4.40
2018-12-07T07:16:28.854Z,4.50
2018-12-07T07:18:55.954Z,4.50
2018-12-07T07:21:23.154Z,4.50
2018-12-07T07:23:50.227Z,4.50
2018-12-07T07:26:17.256Z,4.50
2018-12-07T07:28:44.195Z,4.40
2018-12-07T07:31:11.292Z,4.50
2018-12-07T07:33:38.334Z,4.50
2018-12-07T07:36:05.414Z,4.50
2018-12-07T07:38:32.374Z,4.60
2018-12-07T07:41:06.179Z,4.60
2018-12-07T07:43:33.654Z,4.60
2018-12-07T07:46:00.694Z,4.70
2018-12-07T07:48:27.653Z,4.80
2018-12-07T07:53:56.833Z,4.90
2018-12-07T07:56:23.894Z,5.10
2018-12-07T07:58:50.974Z,5.10
2018-12-07T08:01:17.973Z,5.20
2018-12-07T08:03:45.014Z,5.20
2018-12-07T08:06:18.873Z,5.30
2018-12-07T08:08:45.914Z,5.30
2018-12-07T08:11:12.873Z,5.40
2018-12-07T08:13:40.033Z,5.50
2018-12-07T08:16:07.074Z,5.60
2018-12-07T08:18:34.073Z,5.60
2018-12-07T08:21:01.136Z,5.60
2018-12-07T08:23:28.134Z,5.70
2018-12-07T08:25:55.155Z,5.80
2018-12-07T08:28:22.731Z,5.80
2018-12-07T08:30:50.093Z,5.90
2018-12-07T08:33:17.093Z,6.00
2018-12-07T08:35:44.113Z,6.10
2018-12-07T08:38:11.133Z,6.10
2018-12-07T08:40:38.155Z,6.20
2018-12-07T08:43:05.156Z,6.20
2018-12-07T08:45:32.133Z,6.20
2018-12-07T08:47:59.075Z,6.30
2018-12-07T08:50:26.349Z,6.30
2018-12-07T08:52:53.392Z,6.30
2018-12-07T08:55:20.415Z,6.40
2018-12-07T08:57:47.413Z,6.50
2018-12-07T09:00:14.512Z,6.40
2018-12-07T09:02:41.513Z,6.40
2018-12-07T09:05:08.573Z,6.40
2018-12-07T09:07:35.613Z,6.30
2018-12-07T09:10:04.073Z,6.30
2018-12-07T09:12:31.373Z,6.30
2018-12-07T09:14:58.336Z,6.30
2018-12-07T09:17:25.375Z,6.20
2018-12-07T09:19:52.333Z,6.30
2018-12-07T09:22:19.416Z,6.30
2018-12-07T09:24:46.372Z,6.40
2018-12-07T09:27:20.463Z,6.40
2018-12-07T09:29:47.356Z,6.50
2018-12-07T09:32:14.317Z,6.50
2018-12-07T09:34:41.272Z,6.60
2018-12-07T09:37:08.293Z,6.70
2018-12-07T09:39:35.313Z,6.70
2018-12-07T09:42:02.317Z,6.80
2018-12-07T09:44:29.673Z,6.90
2018-12-07T09:46:56.696Z,7.00
2018-12-07T09:49:30.859Z,7.20
2018-12-07T09:51:57.893Z,7.30
2018-12-07T09:54:24.853Z,7.30
2018-12-07T09:56:51.953Z,7.40
2018-12-07T09:59:18.933Z,7.60
2018-12-07T10:01:46.077Z,7.70
2018-12-07T10:04:13.395Z,7.80
2018-12-07T10:06:40.452Z,7.90
2018-12-07T10:09:07.493Z,8.00
2018-12-07T10:11:34.553Z,8.10
2018-12-07T10:14:02.060Z,8.10
2018-12-07T10:16:29.140Z,8.20
2018-12-07T10:18:56.098Z,8.30
2018-12-07T10:21:23.094Z,8.30
2018-12-07T10:23:50.094Z,8.40
2018-12-07T10:26:17.133Z,8.50
2018-12-07T10:28:44.095Z,8.70
2018-12-07T10:31:11.133Z,8.90
2018-12-07T10:33:38.113Z,9.20
2018-12-07T10:36:05.132Z,9.40
2018-12-07T10:38:32.154Z,9.50
2018-12-07T10:40:59.552Z,9.60
2018-12-07T10:43:26.774Z,9.80
2018-12-07T10:45:53.814Z,9.90
2018-12-07T10:48:20.801Z,10.00
2018-12-07T10:50:47.974Z,10.10
2018-12-07T10:53:15.014Z,10.20
2018-12-07T10:55:42.054Z,10.30
2018-12-07T10:58:09.076Z,10.40
2018-12-07T11:00:42.176Z,10.60
2018-12-07T11:03:15.076Z,10.70
2018-12-07T11:05:42.192Z,10.60
2018-12-07T11:08:15.153Z,10.60
2018-12-07T11:10:48.274Z,10.60
2018-12-07T11:13:21.293Z,10.80
2018-12-07T11:15:54.438Z,10.80
2018-12-07T11:18:27.357Z,10.90
2018-12-07T11:21:07.214Z,11.00
2018-12-07T11:26:45.997Z,11.00
2018-12-07T11:29:15.095Z,10.80
2018-12-07T11:31:44.253Z,10.80
2018-12-07T11:34:13.321Z,10.70
2018-12-07T11:36:40.353Z,10.70
2018-12-07T11:39:08.254Z,10.60
2018-12-07T11:41:35.313Z,10.60
2018-12-07T11:44:02.273Z,10.60
2018-12-07T11:46:36.386Z,10.80
2018-12-07T11:49:03.394Z,10.90
2018-12-07T11:51:37.554Z,11.00
2018-12-07T11:57:00.573Z,11.30
2018-12-07T11:59:27.576Z,11.30
2018-12-07T12:01:54.639Z,11.30
2018-12-07T12:04:21.573Z,11.20
2018-12-07T12:06:48.593Z,11.10
2018-12-07T12:09:15.553Z,11.10
2018-12-07T12:11:42.514Z,11.00
2018-12-07T12:14:09.515Z,11.00
2018-12-07T12:16:36.533Z,10.90
2018-12-07T12:19:03.495Z,10.90
2018-12-07T12:21:30.422Z,10.90
2018-12-07T12:23:57.454Z,11.00
2018-12-07T12:26:24.575Z,11.10
2018-12-07T12:28:51.731Z,11.10
2018-12-07T12:31:18.721Z,11.00
2018-12-07T12:33:45.761Z,11.00
2018-12-07T12:36:17.029Z,11.00
2018-12-07T12:38:42.162Z,10.90
2018-12-07T12:41:09.101Z,10.90
2018-12-07T12:43:36.104Z,11.00
2018-12-07T12:46:03.162Z,11.00
2018-12-07T12:48:30.401Z,11.00
2018-12-07T12:50:59.041Z,10.90
2018-12-07T12:53:26.102Z,10.90
2018-12-07T12:55:53.200Z,10.90
2018-12-07T12:58:20.261Z,10.90
2018-12-07T13:00:47.224Z,10.90
2018-12-07T13:03:14.281Z,10.90
2018-12-07T13:05:41.221Z,10.80
2018-12-07T13:08:08.200Z,10.80
2018-12-07T13:10:35.261Z,10.80
2018-12-07T13:13:02.321Z,10.80
2018-12-07T13:15:29.341Z,10.80
2018-12-07T13:18:07.691Z,10.80
2018-12-07T13:20:34.662Z,10.70
2018-12-07T13:23:01.642Z,10.70
2018-12-07T13:25:28.642Z,10.70
2018-12-07T13:27:55.662Z,10.60
2018-12-07T13:30:22.640Z,10.60
2018-12-07T13:32:49.561Z,10.50
2018-12-07T13:35:16.531Z,10.50
2018-12-07T13:37:43.509Z,10.50
2018-12-07T13:40:10.691Z,10.50
2018-12-07T13:42:37.790Z,10.50
2018-12-07T13:45:06.770Z,10.50
2018-12-07T13:47:33.944Z,10.40
2018-12-07T13:50:07.104Z,10.40
2018-12-07T13:52:34.301Z,10.40
2018-12-07T13:55:01.708Z,10.50
2018-12-07T13:57:28.910Z,10.50
2018-12-07T13:59:56.071Z,10.50
2018-12-07T14:02:23.333Z,10.50
2018-12-07T14:04:50.635Z,10.50
2018-12-07T14:07:17.862Z,10.60
2018-12-07T14:09:45.022Z,10.70
2018-12-07T14:12:12.651Z,10.70
2018-12-07T14:14:39.757Z,10.80
2018-12-07T14:17:07.113Z,10.60
2018-12-07T14:19:34.260Z,10.60
2018-12-07T14:22:01.773Z,10.50
2018-12-07T14:24:28.866Z,10.60
2018-12-07T14:26:59.469Z,10.50
2018-12-07T14:29:25.181Z,10.40
2018-12-07T14:31:52.750Z,10.40
2018-12-07T14:34:19.972Z,10.30
2018-12-07T14:36:47.095Z,10.20
2018-12-07T14:39:14.177Z,10.30
2018-12-07T14:41:41.193Z,10.30
2018-12-07T14:44:08.549Z,10.30
2018-12-07T14:46:36.034Z,10.40
2018-12-07T14:49:03.582Z,10.30
2018-12-07T14:51:30.849Z,10.30
2018-12-07T14:53:58.217Z,10.20
2018-12-07T14:56:25.276Z,10.10
2018-12-07T14:58:52.333Z,9.90
2018-12-07T15:01:19.515Z,9.80
2018-12-07T15:03:46.821Z,9.70
2018-12-07T15:06:14.039Z,9.70
2018-12-07T15:08:41.363Z,9.60
2018-12-07T15:11:08.616Z,9.60
2018-12-07T15:13:36.131Z,9.50
2018-12-07T15:16:03.242Z,9.40
2018-12-07T15:18:30.371Z,9.30
2018-12-07T15:20:57.449Z,9.10
2018-12-07T15:23:24.697Z,9.00
2018-12-07T15:25:51.815Z,8.90
2018-12-07T15:28:18.896Z,8.80
2018-12-07T15:30:46.007Z,8.80
2018-12-07T15:33:13.021Z,8.70
2018-12-07T15:35:40.072Z,8.60
2018-12-07T15:38:07.078Z,8.50
2018-12-07T15:40:34.374Z,8.50
2018-12-07T15:43:01.355Z,8.50
2018-12-07T15:45:28.673Z,8.40
2018-12-07T15:47:55.887Z,8.40
2018-12-07T15:50:25.314Z,8.30
2018-12-07T15:52:52.571Z,8.30
2018-12-07T15:55:19.654Z,8.20
2018-12-07T15:57:46.748Z,8.20
2018-12-07T16:00:13.757Z,8.10
2018-12-07T16:02:41.113Z,8.10
2018-12-07T16:05:08.371Z,8.00
2018-12-07T16:07:35.506Z,7.90
2018-12-07T16:10:16.653Z,7.90
2018-12-07T16:12:44.087Z,7.80
2018-12-07T16:15:11.351Z,7.80
2018-12-07T16:17:38.447Z,7.80
2018-12-07T16:20:10.310Z,7.70
2018-12-07T16:22:37.487Z,7.60
2018-12-07T16:25:05.014Z,7.60
2018-12-07T16:27:32.049Z,7.50
2018-12-07T16:29:59.231Z,7.40
2018-12-07T16:32:26.176Z,7.40
2018-12-07T16:34:53.265Z,7.30
2018-12-07T16:37:20.773Z,7.20
2018-12-07T16:39:48.045Z,7.20
2018-12-07T16:42:15.121Z,7.10
2018-12-07T16:44:42.306Z,7.10
2018-12-07T16:47:09.246Z,7.00
2018-12-07T16:49:36.449Z,7.00
2018-12-07T16:52:03.839Z,7.00
2018-12-07T16:54:30.897Z,7.00
2018-12-07T16:56:57.989Z,6.90
2018-12-07T16:59:25.065Z,6.90
2018-12-07T17:01:52.398Z,6.90
2018-12-07T17:04:19.457Z,6.90
2018-12-07T17:06:53.553Z,6.90
2018-12-07T17:09:23.742Z,6.90
2018-12-07T17:11:50.856Z,6.80
2018-12-07T17:14:17.895Z,6.80
2018-12-07T17:16:45.626Z,6.80
2018-12-07T17:19:12.630Z,6.80
2018-12-07T17:21:39.767Z,6.80
2018-12-07T17:24:07.145Z,6.80
2018-12-07T17:26:34.225Z,6.80
2018-12-07T17:29:01.818Z,6.80
2018-12-07T17:31:28.881Z,6.80
2018-12-07T17:33:56.261Z,6.80
2018-12-07T17:36:23.614Z,6.80
2018-12-07T17:38:57.574Z,6.80
2018-12-07T17:41:24.774Z,6.80
2018-12-07T17:43:54.908Z,6.80
2018-12-07T17:46:22.200Z,6.80
2018-12-07T17:48:49.618Z,6.80
2018-12-07T17:51:16.591Z,6.80
2018-12-07T17:53:43.821Z,6.80
2018-12-07T17:56:11.084Z,6.80
2018-12-07T17:58:38.208Z,6.70
2018-12-07T18:01:05.268Z,6.80
2018-12-07T18:03:32.308Z,6.70
2018-12-07T18:05:59.369Z,6.80
2018-12-07T18:08:26.737Z,6.80
2018-12-07T18:10:54.059Z,6.80
2018-12-07T18:13:21.184Z,6.80
2018-12-07T18:15:55.324Z,6.80
2018-12-07T18:18:22.433Z,6.80
2018-12-07T18:20:49.736Z,6.80
2018-12-07T18:23:17.110Z,6.90
2018-12-07T18:25:44.269Z,6.90
2018-12-07T18:28:11.248Z,6.90
2018-12-07T18:30:38.374Z,7.00
2018-12-07T18:33:05.630Z,7.00
2018-12-07T18:35:32.796Z,7.00
2018-12-07T18:37:59.915Z,7.00
2018-12-07T18:40:34.227Z,7.00
2018-12-07T18:43:01.381Z,7.00
2018-12-07T18:45:28.576Z,7.10
2018-12-07T18:47:55.698Z,7.00
2018-12-07T18:50:22.723Z,7.00
2018-12-07T18:52:51.741Z,7.00
2018-12-07T18:55:18.859Z,7.10
2018-12-07T18:57:45.922Z,7.10
2018-12-07T19:00:13.028Z,7.10
2018-12-07T19:02:40.217Z,7.00
2018-12-07T19:05:08.171Z,7.00
2018-12-07T19:07:35.458Z,6.90
2018-12-07T19:10:03.571Z,7.00
2018-12-07T19:12:30.704Z,7.00
2018-12-07T19:14:57.944Z,7.00
2018-12-07T19:17:25.149Z,7.00
2018-12-07T19:19:52.608Z,7.00
2018-12-07T19:22:19.971Z,7.10
2018-12-07T19:24:47.142Z,7.10
2018-12-07T19:27:14.219Z,7.10
2018-12-07T19:29:41.393Z,7.10
2018-12-07T19:32:08.599Z,7.10
2018-12-07T19:34:35.695Z,7.10
2018-12-07T19:37:02.982Z,7.00
2018-12-07T19:39:30.131Z,7.00
2018-12-07T19:41:57.151Z,6.90
2018-12-07T19:44:24.151Z,6.90
2018-12-07T19:46:51.355Z,6.90
2018-12-07T19:49:18.687Z,6.90
2018-12-07T19:51:45.811Z,6.80
2018-12-07T19:54:13.333Z,6.70
2018-12-07T19:56:40.591Z,6.70
2018-12-07T20:02:03.232Z,6.50
2018-12-07T20:04:30.712Z,6.40
2018-12-07T20:06:58.229Z,6.30
2018-12-07T20:09:25.830Z,6.20
2018-12-07T20:11:53.327Z,6.20
2018-12-07T20:14:34.856Z,6.10
2018-12-07T20:17:01.928Z,6.00
2018-12-07T20:19:29.159Z,6.00
2018-12-07T20:21:56.102Z,5.90
2018-12-07T20:24:23.419Z,5.80
2018-12-07T20:26:50.885Z,5.80
2018-12-07T20:29:18.162Z,5.70
2018-12-07T20:31:52.689Z,5.70
2018-12-07T20:34:19.850Z,5.70
2018-12-07T20:36:47.076Z,5.60
2018-12-07T20:39:14.254Z,5.60
2018-12-07T20:41:41.290Z,5.60
2018-12-07T20:44:08.242Z,5.60
2018-12-07T20:46:35.539Z,5.70
2018-12-07T20:49:02.817Z,5.60
2018-12-07T20:51:37.060Z,5.60
2018-12-07T20:54:04.304Z,5.60
2018-12-07T20:56:31.708Z,5.60
2018-12-07T20:58:58.781Z,5.70
2018-12-07T21:01:26.065Z,5.70
2018-12-07T21:07:36.109Z,5.80
2018-12-07T21:17:07.600Z,5.80
2018-12-07T21:19:38.070Z,5.80
2018-12-07T21:22:12.800Z,5.80
2018-12-07T21:24:40.488Z,5.80
2018-12-07T21:27:07.790Z,5.90
2018-12-07T21:29:35.744Z,5.90
2018-12-07T21:32:08.966Z,5.90
2018-12-07T21:34:57.903Z,5.90
2018-12-07T21:37:25.040Z,5.90
2018-12-07T21:39:57.477Z,6.00
2018-12-07T21:42:24.715Z,5.90
2018-12-07T21:45:05.886Z,6.00
2018-12-07T21:51:10.784Z,6.10
2018-12-07T21:53:37.959Z,6.10
2018-12-07T21:56:05.666Z,6.10
2018-12-07T21:58:32.918Z,6.20
2018-12-07T22:01:00.134Z,6.20
2018-12-07T22:03:27.396Z,6.20
2018-12-07T22:05:54.670Z,6.30
2018-12-07T22:08:21.798Z,6.30
2018-12-07T22:10:48.963Z,6.30
2018-12-07T22:13:15.976Z,6.30
2018-12-07T22:15:43.318Z,6.40
2018-12-07T22:18:17.500Z,6.40
2018-12-07T22:20:44.537Z,6.50
2018-12-07T22:23:11.796Z,6.50
2018-12-07T22:25:39.609Z,6.60
2018-12-07T22:28:07.297Z,6.60
2018-12-07T22:30:34.588Z,6.70
2018-12-07T22:33:01.804Z,6.80
2018-12-07T22:35:28.976Z,6.80
2018-12-07T22:37:56.229Z,6.90
2018-12-07T22:40:23.649Z,7.00
2018-12-07T22:42:50.960Z,7.10
2018-12-07T22:45:18.654Z,7.10
2018-12-07T22:47:46.032Z,7.20
2018-12-07T22:50:13.016Z,7.30
2018-12-07T22:52:39.997Z,7.40
2018-12-07T22:55:07.016Z,7.50
2018-12-07T22:57:34.938Z,7.60
2018-12-07T23:00:01.957Z,7.70
2018-12-07T23:02:29.256Z,7.70
2018-12-07T23:04:56.597Z,7.70
2018-12-07T23:07:23.617Z,7.70
2018-12-07T23:09:50.598Z,7.80
2018-12-07T23:12:17.676Z,7.70
2018-12-07T23:14:44.697Z,7.70
2018-12-07T23:17:18.616Z,7.70
2018-12-07T23:19:45.636Z,7.80
2018-12-07T23:22:12.797Z,7.80
2018-12-07T23:24:39.736Z,7.80
2018-12-07T23:27:06.736Z,7.80
2018-12-07T23:29:34.302Z,7.90
2018-12-07T23:32:01.338Z,7.90
2018-12-07T23:34:28.337Z,7.90
2018-12-07T23:36:55.417Z,7.90
2018-12-07T23:39:22.456Z,7.90
2018-12-07T23:41:49.496Z,7.90
2018-12-07T23:44:16.415Z,7.90
2018-12-07T23:46:43.396Z,7.90
2018-12-07T23:49:10.496Z,7.80
2018-12-07T23:51:37.557Z,7.80
2018-12-07T23:54:04.576Z,7.80
2018-12-07T23:56:31.615Z,7.80
2018-12-07T23:58:58.615Z,7.80
